createdAt,value
2022-09-26T06:36:17.028Z,1.58
2022-09-26T06:38:43.995Z,1.70
2022-09-26T06:41:10.979Z,1.90
2022-09-26T06:43:39.616Z,1.63
2022-09-26T06:46:09.418Z,1.60
2022-09-26T06:48:36.689Z,1.60
2022-09-26T06:51:03.838Z,1.50
2022-09-26T06:53:31.329Z,1.40
2022-09-26T06:55:59.663Z,1.70
2022-09-26T06:58:27.440Z,1.50
2022-09-26T07:00:54.530Z,1.20
2022-09-26T07:03:25.170Z,1.10
2022-09-26T07:05:54.386Z,1.00
2022-09-26T07:08:32.330Z,1.07
2022-09-26T07:11:31.226Z,1.10
2022-09-26T07:13:55.635Z,1.00
2022-09-26T07:16:22.887Z,1.07
2022-09-26T07:18:49.901Z,1.10
2022-09-26T07:21:17.014Z,1.00
2022-09-26T07:23:44.021Z,1.23
2022-09-26T07:26:11.184Z,1.00
2022-09-26T07:28:38.424Z,1.25
2022-09-26T07:31:07.478Z,1.08
2022-09-26T07:33:34.563Z,1.20
2022-09-26T07:36:05.246Z,0.93
2022-09-26T07:38:32.748Z,1.77
2022-09-26T07:41:01.103Z,2.17
2022-09-26T07:43:53.644Z,2.10
2022-09-26T07:46:35.448Z,2.10
2022-09-26T07:49:22.729Z,1.80
2022-09-26T07:52:04.591Z,1.70
2022-09-26T07:54:31.671Z,2.10
2022-09-26T07:56:58.740Z,2.20
2022-09-26T07:59:25.726Z,2.10
2022-09-26T08:01:54.515Z,2.20
2022-09-26T08:04:21.537Z,2.28
2022-09-26T08:06:49.974Z,2.03
2022-09-26T08:09:17.143Z,2.47
2022-09-26T08:11:44.324Z,2.50
2022-09-26T08:14:11.697Z,2.40
2022-09-26T08:16:41.518Z,2.25
2022-09-26T08:19:11.076Z,2.20
2022-09-26T08:21:38.222Z,1.80
2022-09-26T08:24:05.185Z,1.95
2022-09-26T08:26:32.190Z,2.22
2022-09-26T08:28:59.869Z,2.00
2022-09-26T08:34:53.865Z,1.80
2022-09-26T08:37:22.695Z,1.63
2022-09-26T08:39:50.082Z,1.42
2022-09-26T08:50:20.382Z,1.30
2022-09-26T08:55:27.671Z,1.40
2022-09-26T09:00:38.747Z,1.40
2022-09-26T09:05:50.075Z,2.58
2022-09-26T09:08:22.304Z,2.80
2022-09-26T09:13:40.053Z,2.72
2022-09-26T09:29:52.178Z,2.42
2022-09-26T09:32:22.681Z,2.60
2022-09-26T09:34:53.638Z,3.05
2022-09-26T09:37:22.753Z,3.03
2022-09-26T09:39:51.094Z,3.10
2022-09-26T09:42:37.988Z,2.53
2022-09-26T09:47:43.284Z,2.70
2022-09-26T09:53:19.036Z,2.70
2022-09-26T09:55:51.527Z,2.78
2022-09-26T09:58:24.393Z,2.65
2022-09-26T10:01:11.258Z,2.60
2022-09-26T10:03:58.121Z,2.65
2022-09-26T10:06:44.361Z,2.88
2022-09-26T10:09:36.092Z,2.85
2022-09-26T10:14:56.731Z,2.50
2022-09-26T10:17:24.247Z,2.63
2022-09-26T10:19:51.704Z,2.70
2022-09-26T10:22:25.907Z,2.50
2022-09-26T10:24:54.970Z,3.00
2022-09-26T10:27:38.961Z,2.55
2022-09-26T10:30:09.841Z,2.60
2022-09-26T10:32:45.524Z,2.53
2022-09-26T10:35:21.332Z,2.60
2022-09-26T10:37:58.687Z,2.60
2022-09-26T10:40:46.266Z,2.47
2022-09-26T10:43:33.287Z,2.30
2022-09-26T10:54:03.846Z,2.10
2022-09-26T10:56:33.608Z,2.20
2022-09-26T10:59:06.353Z,2.05
2022-09-26T11:01:38.292Z,2.30
2022-09-26T11:04:45.165Z,2.13
2022-09-26T11:07:19.914Z,2.33
2022-09-26T11:09:47.050Z,2.15
2022-09-26T11:12:35.158Z,2.20
2022-09-26T11:15:06.707Z,2.30
2022-09-26T11:17:44.897Z,2.00
2022-09-26T11:20:17.775Z,2.70
2022-09-26T11:22:49.974Z,1.90
2022-09-26T11:25:26.913Z,1.90
2022-09-26T11:27:58.473Z,1.93
2022-09-26T11:30:29.234Z,1.90
2022-09-26T11:32:57.931Z,1.90
2022-09-26T11:38:15.745Z,1.90
2022-09-26T11:40:52.730Z,2.10
2022-09-26T11:43:26.394Z,1.70
2022-09-26T11:46:04.216Z,1.75
2022-09-26T11:48:44.602Z,1.70
2022-09-26T11:51:19.661Z,1.80
2022-09-26T11:53:55.268Z,1.85
2022-09-26T11:56:42.147Z,1.70
2022-09-26T11:59:29.534Z,1.60
2022-09-26T12:10:11.854Z,1.70
2022-09-26T12:12:45.386Z,1.60
2022-09-26T12:15:21.834Z,1.65
2022-09-26T12:17:56.675Z,1.40
2022-09-26T12:20:43.548Z,1.50
2022-09-26T12:31:48.803Z,1.33
2022-09-26T12:34:37.964Z,1.60
2022-09-26T12:37:24.832Z,1.50
2022-09-26T12:40:10.174Z,1.45
2022-09-26T12:45:33.722Z,1.40
2022-09-26T12:56:22.981Z,1.48
2022-09-26T12:58:57.769Z,1.60
2022-09-26T13:04:14.791Z,1.38
2022-09-26T13:07:18.244Z,1.40
2022-09-26T13:09:57.365Z,1.52
2022-09-26T13:12:38.797Z,1.50
2022-09-26T13:15:11.766Z,1.55
2022-09-26T13:17:41.909Z,1.63
2022-09-26T13:20:18.677Z,1.60
2022-09-26T13:25:33.828Z,1.50
2022-09-26T13:30:40.289Z,1.70
